createdAt,value
2023-10-11T00:00:29.489Z,99.22
2023-10-11T00:03:01.072Z,99.63
2023-10-11T00:05:37.488Z,99.36
2023-10-11T00:08:05.180Z,99.03
2023-10-11T00:10:32.548Z,99.21
2023-10-11T00:12:59.884Z,98.76
2023-10-11T00:15:30.028Z,98.43
2023-10-11T00:17:57.510Z,98.60
2023-10-11T00:20:51.557Z,98.54
2023-10-11T00:23:22.054Z,98.30
2023-10-11T00:25:51.550Z,98.51
2023-10-11T00:28:24.259Z,98.97
2023-10-11T00:31:00.398Z,99.39
2023-10-11T00:33:38.568Z,98.90
2023-10-11T00:36:07.538Z,99.39
2023-10-11T00:38:44.604Z,99.45
2023-10-11T00:41:12.117Z,99.43
2023-10-11T00:43:48.101Z,98.87
2023-10-11T00:46:15.564Z,99.79
2023-10-11T00:48:56.371Z,99.52
2023-10-11T00:51:32.881Z,99.30
2023-10-11T00:54:04.387Z,99.46
2023-10-11T00:56:34.392Z,99.48
2023-10-11T00:59:02.424Z,100.00
2023-10-11T01:01:29.516Z,100.00
2023-10-11T01:03:57.061Z,100.00
2023-10-11T01:06:26.931Z,100.00
2023-10-11T01:08:54.501Z,100.00
2023-10-11T01:11:23.014Z,100.00
2023-10-11T01:13:52.765Z,100.00
2023-10-11T01:16:21.906Z,99.75
2023-10-11T01:18:49.076Z,99.74
2023-10-11T01:21:15.990Z,99.53
2023-10-11T01:23:43.141Z,100.00
2023-10-11T01:26:10.139Z,99.74
2023-10-11T01:28:42.081Z,99.36
2023-10-11T01:31:12.405Z,99.63
2023-10-11T01:33:42.492Z,99.54
2023-10-11T01:36:13.352Z,99.16
2023-10-11T01:38:50.328Z,99.32
2023-10-11T01:41:28.273Z,99.71
2023-10-11T01:43:56.302Z,99.63
2023-10-11T01:46:26.763Z,100.00
2023-10-11T01:48:57.158Z,100.00
2023-10-11T01:51:30.070Z,100.00
2023-10-11T01:54:01.353Z,100.00
2023-10-11T01:56:28.932Z,100.00
2023-10-11T01:59:01.921Z,99.80
2023-10-11T02:01:31.891Z,99.88
2023-10-11T02:04:00.433Z,99.64
2023-10-11T02:06:33.536Z,99.73
2023-10-11T02:09:00.883Z,99.68
2023-10-11T02:11:30.832Z,99.20
2023-10-11T02:14:01.569Z,99.60
2023-10-11T02:16:29.665Z,99.75
2023-10-11T02:19:00.417Z,99.77
2023-10-11T02:21:31.132Z,99.55
2023-10-11T02:23:59.085Z,99.72
2023-10-11T02:26:31.057Z,99.95
2023-10-11T02:29:02.243Z,100.00
2023-10-11T02:31:34.819Z,100.00
2023-10-11T02:34:14.599Z,99.95
2023-10-11T02:36:44.260Z,100.00
2023-10-11T02:39:21.890Z,100.00
2023-10-11T02:41:56.909Z,100.00
2023-10-11T02:44:24.468Z,100.00
2023-10-11T02:46:52.131Z,100.00
2023-10-11T02:49:22.301Z,100.00
2023-10-11T02:52:08.899Z,100.00
2023-10-11T02:54:40.103Z,100.00
2023-10-11T02:57:07.995Z,100.00
2023-10-11T02:59:35.133Z,100.00
2023-10-11T03:02:02.232Z,100.00
2023-10-11T03:04:42.838Z,100.00
2023-10-11T03:07:16.320Z,100.00
2023-10-11T03:09:44.220Z,100.00
2023-10-11T03:12:40.667Z,100.00
2023-10-11T03:15:11.301Z,100.00
2023-10-11T03:17:43.745Z,100.00
2023-10-11T03:20:27.225Z,100.00
2023-10-11T03:22:54.561Z,100.00
2023-10-11T03:25:21.394Z,100.00
2023-10-11T03:27:50.710Z,100.00
2023-10-11T03:30:18.346Z,100.00
2023-10-11T03:32:46.006Z,100.00
2023-10-11T03:35:17.739Z,100.00
2023-10-11T03:37:58.506Z,100.00
2023-10-11T03:40:55.695Z,100.00
2023-10-11T03:43:24.979Z,100.00
2023-10-11T03:45:52.555Z,100.00
2023-10-11T03:48:21.248Z,100.00
2023-10-11T03:50:53.953Z,100.00
2023-10-11T03:53:21.055Z,100.00
2023-10-11T03:55:48.495Z,100.00
2023-10-11T03:58:44.709Z,100.00
2023-10-11T04:01:15.681Z,100.00
2023-10-11T04:03:43.034Z,100.00
2023-10-11T04:06:16.567Z,100.00
2023-10-11T04:09:10.164Z,100.00
2023-10-11T04:11:55.367Z,100.00
2023-10-11T04:14:26.924Z,100.00
2023-10-11T04:17:01.880Z,100.00
2023-10-11T04:19:32.698Z,100.00
2023-10-11T04:22:13.533Z,100.00
2023-10-11T04:24:42.275Z,100.00
2023-10-11T04:27:34.956Z,100.00
2023-10-11T04:30:18.822Z,100.00
2023-10-11T04:32:48.736Z,100.00
2023-10-11T04:35:37.744Z,100.00
2023-10-11T04:38:05.509Z,100.00
2023-10-11T04:40:35.256Z,100.00
2023-10-11T04:43:06.422Z,100.00
2023-10-11T04:48:16.993Z,100.00
2023-10-11T04:50:46.531Z,100.00
2023-10-11T04:53:18.746Z,100.00
2023-10-11T04:56:06.191Z,100.00
2023-10-11T04:58:42.042Z,100.00
2023-10-11T05:01:12.668Z,100.00
2023-10-11T05:03:41.071Z,100.00
2023-10-11T05:06:29.161Z,100.00
2023-10-11T05:09:04.637Z,100.00
2023-10-11T05:11:40.257Z,100.00
2023-10-11T05:14:25.968Z,100.00
2023-10-11T05:16:59.512Z,100.00
2023-10-11T05:19:28.871Z,100.00
2023-10-11T05:22:04.136Z,100.00
2023-10-11T05:24:44.357Z,100.00
2023-10-11T05:27:41.478Z,100.00
2023-10-11T05:30:12.880Z,100.00
2023-10-11T05:32:50.618Z,100.00
2023-10-11T05:35:41.098Z,100.00
2023-10-11T05:38:26.627Z,100.00
2023-10-11T05:41:12.329Z,100.00
2023-10-11T05:43:58.054Z,100.00
2023-10-11T05:46:43.568Z,100.00
2023-10-11T05:49:28.975Z,99.61
2023-10-11T05:51:57.788Z,98.43
2023-10-11T05:54:35.153Z,97.50
2023-10-11T05:57:06.030Z,97.56
2023-10-11T05:59:33.680Z,97.38
2023-10-11T06:02:00.882Z,96.56
2023-10-11T06:04:27.859Z,95.47
2023-10-11T06:06:59.102Z,94.74
2023-10-11T06:09:31.608Z,94.00
2023-10-11T06:11:58.816Z,92.28
2023-10-11T06:14:25.730Z,91.22
2023-10-11T06:16:59.100Z,91.86
2023-10-11T06:19:29.362Z,89.29
2023-10-11T06:22:00.245Z,88.57
2023-10-11T06:24:32.143Z,87.76
2023-10-11T06:27:12.778Z,87.54
2023-10-11T06:29:40.534Z,86.35
2023-10-11T06:32:20.528Z,85.85
2023-10-11T06:34:48.830Z,84.78
2023-10-11T06:37:19.420Z,78.19
2023-10-11T06:39:50.080Z,76.36
2023-10-11T06:42:24.284Z,71.13
2023-10-11T06:45:18.285Z,71.82
2023-10-11T06:47:48.845Z,67.38
2023-10-11T06:50:15.907Z,60.49
2023-10-11T06:52:47.061Z,63.55
2023-10-11T06:55:15.973Z,61.68
2023-10-11T06:57:46.709Z,53.62
2023-10-11T07:00:30.466Z,51.96
2023-10-11T07:03:22.758Z,49.51
2023-10-11T07:05:50.782Z,43.04
2023-10-11T07:08:19.593Z,37.81
2023-10-11T07:11:10.237Z,34.40
2023-10-11T07:13:55.929Z,31.65
2023-10-11T07:16:24.867Z,29.86
2023-10-11T07:18:55.942Z,28.78
2023-10-11T07:21:27.516Z,27.96
2023-10-11T07:23:54.515Z,27.69
2023-10-11T07:26:32.032Z,27.21
2023-10-11T07:29:07.094Z,28.08
2023-10-11T07:31:35.025Z,28.32
2023-10-11T07:34:11.344Z,30.39
2023-10-11T07:36:39.481Z,31.95
2023-10-11T07:39:16.503Z,31.51
2023-10-11T07:41:43.901Z,32.67
2023-10-11T07:44:11.865Z,33.84
2023-10-11T07:46:39.320Z,34.89
2023-10-11T07:49:10.265Z,34.78
2023-10-11T07:51:37.962Z,32.94
2023-10-11T07:54:08.208Z,29.24
2023-10-11T07:56:38.817Z,27.52
2023-10-11T07:59:09.929Z,26.36
2023-10-11T08:01:46.706Z,26.29
2023-10-11T08:04:18.828Z,25.13
2023-10-11T08:06:46.218Z,24.74
2023-10-11T08:09:24.678Z,24.55
2023-10-11T08:11:55.559Z,25.42
2023-10-11T08:14:29.679Z,25.62
2023-10-11T08:16:57.440Z,24.71
2023-10-11T08:19:24.404Z,24.79
2023-10-11T08:21:58.757Z,23.66
2023-10-11T08:24:27.074Z,23.51
2023-10-11T08:26:54.520Z,24.67
2023-10-11T08:29:31.042Z,23.30
2023-10-11T08:32:01.288Z,23.43
2023-10-11T08:34:29.039Z,22.81
2023-10-11T08:36:56.409Z,21.89
2023-10-11T08:39:45.420Z,22.38
2023-10-11T08:42:14.160Z,21.67
2023-10-11T08:44:42.141Z,21.69
2023-10-11T08:47:09.178Z,21.52
2023-10-11T08:49:36.410Z,22.31
2023-10-11T08:52:03.571Z,21.95
2023-10-11T08:54:31.393Z,22.35
2023-10-11T08:57:04.772Z,22.43
2023-10-11T08:59:32.297Z,21.91
2023-10-11T09:02:05.820Z,23.02
2023-10-11T09:04:36.691Z,22.72
2023-10-11T09:07:03.776Z,22.55
2023-10-11T09:09:40.936Z,22.16
2023-10-11T09:12:27.080Z,21.96
2023-10-11T09:15:01.331Z,21.58
2023-10-11T09:17:28.764Z,21.78
2023-10-11T09:20:01.296Z,21.52
2023-10-11T09:22:29.688Z,21.25
2023-10-11T09:25:22.304Z,20.27
2023-10-11T09:27:55.008Z,21.23
2023-10-11T09:30:25.236Z,20.96
2023-10-11T09:33:00.649Z,21.48
2023-10-11T09:35:28.835Z,21.95
2023-10-11T09:37:59.711Z,22.68
2023-10-11T09:40:34.956Z,22.65
2023-10-11T09:43:02.329Z,22.11
2023-10-11T09:45:55.628Z,22.12
2023-10-11T09:48:24.013Z,22.21
2023-10-11T09:50:51.197Z,22.42
2023-10-11T09:53:18.133Z,22.31
2023-10-11T09:55:48.670Z,20.84
2023-10-11T09:58:42.509Z,22.85
2023-10-11T10:01:17.129Z,23.04
2023-10-11T10:03:46.937Z,22.59
2023-10-11T10:06:20.737Z,22.26
2023-10-11T10:09:25.953Z,21.81
2023-10-11T10:12:07.289Z,21.62
2023-10-11T10:14:36.894Z,21.18
2023-10-11T10:17:13.991Z,21.91
2023-10-11T10:19:41.748Z,22.63
2023-10-11T10:22:18.874Z,23.14
2023-10-11T10:24:46.516Z,23.04
2023-10-11T10:27:35.051Z,22.25
2023-10-11T10:30:05.495Z,22.09
2023-10-11T10:32:33.756Z,22.22
2023-10-11T10:35:19.894Z,22.68
2023-10-11T10:37:47.166Z,23.98
2023-10-11T10:40:27.871Z,23.83
2023-10-11T10:43:07.415Z,23.09
2023-10-11T10:45:38.059Z,23.32
2023-10-11T10:48:17.745Z,23.12
2023-10-11T10:50:51.072Z,22.13
2023-10-11T10:53:17.935Z,22.98
2023-10-11T10:55:45.403Z,22.49
2023-10-11T10:58:19.613Z,21.96
2023-10-11T11:00:48.568Z,22.29
2023-10-11T11:03:25.376Z,21.29
2023-10-11T11:06:13.177Z,21.78
2023-10-11T11:08:40.937Z,21.74
2023-10-11T11:11:20.717Z,23.08
2023-10-11T11:13:48.709Z,24.03
2023-10-11T11:16:20.839Z,24.38
2023-10-11T11:18:48.360Z,24.67
2023-10-11T11:21:21.649Z,23.68
2023-10-11T11:23:52.385Z,24.01
2023-10-11T11:28:54.358Z,23.88
2023-10-11T11:31:24.427Z,23.04
2023-10-11T11:34:06.961Z,24.28
2023-10-11T11:36:41.466Z,24.01
2023-10-11T11:39:27.448Z,24.11
2023-10-11T11:41:58.423Z,25.01
2023-10-11T11:44:31.561Z,25.68
2023-10-11T11:47:05.370Z,25.26
2023-10-11T11:49:35.743Z,24.57
2023-10-11T11:52:03.167Z,25.18
2023-10-11T11:54:30.450Z,24.68
2023-10-11T11:56:57.789Z,25.85
2023-10-11T11:59:28.049Z,25.42
2023-10-11T12:01:57.549Z,25.78
2023-10-11T12:04:33.907Z,26.09
2023-10-11T12:07:02.569Z,25.32
2023-10-11T12:09:44.676Z,25.15
2023-10-11T12:12:23.230Z,25.33
2023-10-11T12:14:50.661Z,25.44
2023-10-11T12:17:17.777Z,25.97
2023-10-11T12:19:46.200Z,26.57
2023-10-11T12:22:16.206Z,26.19
2023-10-11T12:24:45.631Z,26.61
2023-10-11T12:27:18.966Z,26.77
2023-10-11T12:30:04.850Z,27.73
2023-10-11T12:32:37.134Z,27.51
2023-10-11T12:35:10.753Z,26.94
2023-10-11T12:37:38.138Z,27.39
2023-10-11T12:40:14.094Z,26.02
2023-10-11T12:42:46.328Z,26.70
2023-10-11T12:45:18.017Z,26.34
2023-10-11T12:47:45.588Z,26.88
2023-10-11T12:50:15.533Z,26.85
2023-10-11T12:52:42.640Z,26.84
2023-10-11T12:55:09.883Z,26.94
2023-10-11T12:57:39.935Z,26.80
2023-10-11T13:00:28.129Z,27.60
2023-10-11T13:03:00.315Z,28.15
2023-10-11T13:05:29.480Z,28.36
2023-10-11T13:07:56.512Z,28.77
2023-10-11T13:10:26.265Z,28.51
2023-10-11T13:12:56.298Z,28.41
2023-10-11T13:15:23.790Z,28.34
2023-10-11T13:17:50.838Z,27.55
2023-10-11T13:20:20.708Z,27.49
2023-10-11T13:22:50.998Z,27.63
2023-10-11T13:25:33.631Z,27.03
2023-10-11T13:28:04.385Z,27.40
2023-10-11T13:30:50.593Z,27.74
2023-10-11T13:33:17.651Z,27.97
2023-10-11T13:35:44.611Z,27.23
2023-10-11T13:38:18.200Z,27.31
2023-10-11T13:40:46.690Z,27.36
2023-10-11T13:43:14.097Z,28.36
2023-10-11T13:45:46.314Z,27.61
2023-10-11T13:48:14.279Z,28.55
2023-10-11T13:50:50.503Z,28.57
2023-10-11T13:53:19.760Z,28.99
2023-10-11T13:55:48.783Z,29.09
2023-10-11T13:58:16.116Z,29.51
2023-10-11T14:00:46.135Z,30.06
2023-10-11T14:03:16.664Z,29.85
2023-10-11T14:06:01.043Z,29.92
2023-10-11T14:08:31.493Z,29.75
2023-10-11T14:11:01.561Z,29.95
2023-10-11T14:13:28.763Z,29.58
2023-10-11T14:15:55.707Z,29.87
2023-10-11T14:18:22.722Z,30.22
2023-10-11T14:20:50.863Z,31.93
2023-10-11T14:23:17.973Z,31.93
2023-10-11T14:25:45.419Z,30.38
2023-10-11T14:28:16.261Z,31.83
2023-10-11T14:30:45.574Z,31.83
2023-10-11T14:33:13.090Z,34.21
2023-10-11T14:35:40.143Z,32.64
2023-10-11T14:38:07.431Z,37.15
2023-10-11T14:40:36.297Z,37.55
2023-10-11T14:43:03.693Z,38.04
2023-10-11T14:45:30.654Z,37.13
2023-10-11T14:47:58.270Z,39.89
2023-10-11T14:50:26.937Z,40.25
2023-10-11T14:52:54.781Z,39.87
2023-10-11T14:55:22.048Z,40.95
2023-10-11T14:57:52.697Z,41.50
2023-10-11T15:00:24.007Z,42.41
2023-10-11T15:02:51.214Z,43.29
2023-10-11T15:05:18.636Z,44.96
2023-10-11T15:07:46.552Z,45.79
2023-10-11T15:10:14.994Z,47.26
2023-10-11T15:12:43.110Z,47.99
2023-10-11T15:15:11.294Z,50.47
2023-10-11T15:17:39.014Z,52.57
2023-10-11T15:20:09.037Z,54.73
2023-10-11T15:22:36.302Z,54.05
2023-10-11T15:25:03.394Z,53.73
2023-10-11T15:27:31.576Z,55.59
2023-10-11T15:29:58.876Z,56.31
2023-10-11T15:32:26.086Z,56.95
2023-10-11T15:34:53.458Z,57.94
2023-10-11T15:37:20.337Z,58.03
2023-10-11T15:39:47.349Z,59.49
2023-10-11T15:42:14.339Z,58.84
2023-10-11T15:44:41.612Z,61.36
2023-10-11T15:47:08.833Z,60.73
2023-10-11T15:49:36.104Z,54.41
2023-10-11T15:52:02.998Z,52.61
2023-10-11T15:54:32.230Z,50.08
2023-10-11T15:57:01.485Z,48.85
2023-10-11T15:59:31.578Z,47.78
2023-10-11T16:02:06.701Z,52.84
2023-10-11T16:04:34.052Z,45.01
2023-10-11T16:07:01.292Z,48.28
2023-10-11T16:09:29.109Z,47.06
2023-10-11T16:11:56.108Z,45.66
2023-10-11T16:14:23.306Z,47.81
2023-10-11T16:16:52.744Z,48.31
2023-10-11T16:19:21.260Z,47.13
2023-10-11T16:21:48.352Z,46.10
2023-10-11T16:24:15.595Z,46.19
2023-10-11T16:26:42.673Z,45.54
2023-10-11T16:29:09.593Z,50.16
2023-10-11T16:31:38.416Z,45.94
2023-10-11T16:34:05.445Z,46.30
2023-10-11T16:36:32.628Z,45.85
2023-10-11T16:38:59.730Z,47.68
2023-10-11T16:41:26.684Z,44.75
2023-10-11T16:43:55.515Z,46.13
2023-10-11T16:48:53.832Z,44.15
2023-10-11T16:51:21.966Z,44.58
2023-10-11T16:53:48.996Z,43.98
2023-10-11T16:56:16.312Z,43.44
2023-10-11T16:58:44.615Z,43.26
2023-10-11T17:01:12.628Z,44.99
2023-10-11T17:03:43.148Z,44.20
2023-10-11T17:06:10.450Z,45.50
2023-10-11T17:08:37.788Z,46.55
2023-10-11T17:11:11.588Z,47.63
2023-10-11T17:13:38.983Z,47.36
2023-10-11T17:16:07.407Z,48.67
2023-10-11T17:18:37.685Z,46.98
2023-10-11T17:21:04.985Z,46.40
2023-10-11T17:23:33.888Z,45.22
2023-10-11T17:26:13.950Z,44.56
2023-10-11T17:28:42.887Z,44.66
2023-10-11T17:31:15.692Z,44.23
2023-10-11T17:33:44.476Z,44.37
2023-10-11T17:36:12.163Z,44.94
2023-10-11T17:38:42.286Z,45.39
2023-10-11T17:41:14.506Z,45.56
2023-10-11T17:43:45.625Z,46.00
2023-10-11T17:46:12.722Z,46.63
2023-10-11T17:48:41.772Z,47.63
2023-10-11T17:51:17.699Z,47.81
2023-10-11T17:53:45.177Z,48.32
2023-10-11T17:56:16.030Z,48.78
2023-10-11T17:58:43.606Z,49.12
2023-10-11T18:01:14.814Z,49.08
2023-10-11T18:03:41.931Z,49.07
2023-10-11T18:06:09.826Z,48.51
2023-10-11T18:08:37.063Z,48.62
2023-10-11T18:11:04.029Z,48.79
2023-10-11T18:13:31.582Z,49.12
2023-10-11T18:15:58.495Z,48.67
2023-10-11T18:18:26.492Z,49.72
2023-10-11T18:20:53.755Z,49.51
2023-10-11T18:23:22.806Z,48.89
2023-10-11T18:25:49.798Z,49.21
2023-10-11T18:28:17.040Z,49.18
2023-10-11T18:30:44.030Z,51.79
2023-10-11T18:33:13.775Z,50.95
2023-10-11T18:35:41.021Z,50.83
2023-10-11T18:38:08.183Z,51.74
2023-10-11T18:40:35.838Z,52.08
2023-10-11T18:43:04.319Z,52.63
2023-10-11T18:45:32.453Z,52.74
2023-10-11T18:47:59.735Z,53.79
2023-10-11T18:50:26.858Z,54.41
2023-10-11T18:52:58.543Z,53.64
2023-10-11T18:55:25.589Z,54.23
2023-10-11T18:57:53.590Z,54.58
2023-10-11T19:00:24.560Z,53.53
2023-10-11T19:02:53.347Z,53.85
2023-10-11T19:05:21.628Z,54.50
2023-10-11T19:07:53.170Z,55.33
2023-10-11T19:10:20.984Z,55.00
2023-10-11T19:12:48.965Z,54.39
2023-10-11T19:15:17.964Z,54.16
2023-10-11T19:17:50.473Z,54.23
2023-10-11T19:20:19.131Z,54.56
2023-10-11T19:22:49.812Z,54.26
2023-10-11T19:25:17.679Z,53.63
2023-10-11T19:27:45.260Z,53.13
2023-10-11T19:30:18.118Z,52.85
2023-10-11T19:32:46.030Z,52.13
2023-10-11T19:35:15.715Z,52.45
2023-10-11T19:37:44.175Z,51.31
2023-10-11T19:40:16.880Z,50.33
2023-10-11T19:42:45.798Z,49.57
2023-10-11T19:45:19.615Z,49.29
2023-10-11T19:47:53.300Z,50.18
2023-10-11T19:50:21.045Z,49.71
2023-10-11T19:52:50.097Z,49.06
2023-10-11T19:55:24.678Z,48.73
2023-10-11T19:57:53.008Z,48.86
2023-10-11T20:00:23.647Z,49.82
2023-10-11T20:02:52.307Z,49.36
2023-10-11T20:05:19.602Z,49.43
2023-10-11T20:07:48.474Z,49.85
2023-10-11T20:10:16.068Z,48.62
2023-10-11T20:12:53.431Z,48.83
2023-10-11T20:15:21.356Z,48.60
2023-10-11T20:17:53.083Z,49.36
2023-10-11T20:20:20.900Z,48.97
2023-10-11T20:22:51.683Z,49.75
2023-10-11T20:25:21.581Z,49.68
2023-10-11T20:27:49.666Z,50.10
2023-10-11T20:30:17.652Z,50.22
2023-10-11T20:32:48.326Z,49.42
2023-10-11T20:35:15.917Z,48.65
2023-10-11T20:37:42.883Z,47.23
2023-10-11T20:40:15.810Z,46.79
2023-10-11T20:42:46.396Z,46.42
2023-10-11T20:45:16.381Z,45.95
2023-10-11T20:47:44.474Z,45.41
2023-10-11T20:50:17.403Z,45.17
2023-10-11T20:52:46.212Z,45.05
2023-10-11T20:55:13.751Z,45.41
2023-10-11T20:57:56.097Z,44.99
2023-10-11T21:00:23.809Z,45.31
2023-10-11T21:02:50.885Z,45.36
2023-10-11T21:05:17.805Z,45.80
2023-10-11T21:07:44.891Z,45.79
2023-10-11T21:10:12.027Z,46.13
2023-10-11T21:12:41.005Z,47.43
2023-10-11T21:15:13.923Z,46.32
2023-10-11T21:17:48.767Z,46.02
2023-10-11T21:20:18.826Z,45.99
2023-10-11T21:22:45.748Z,45.87
2023-10-11T21:25:15.500Z,45.73
2023-10-11T21:27:43.708Z,46.17
2023-10-11T21:30:19.266Z,45.91
2023-10-11T21:32:48.434Z,46.53
2023-10-11T21:35:22.220Z,46.91
2023-10-11T21:37:52.250Z,46.81
2023-10-11T21:40:20.117Z,47.29
2023-10-11T21:42:47.315Z,46.93
2023-10-11T21:45:14.407Z,47.50
2023-10-11T21:47:47.746Z,48.06
2023-10-11T21:50:16.399Z,48.16
2023-10-11T21:52:44.198Z,48.33
2023-10-11T21:55:14.683Z,49.00
2023-10-11T21:57:44.578Z,49.55
2023-10-11T22:00:20.325Z,50.17
2023-10-11T22:02:47.477Z,50.01
2023-10-11T22:05:14.809Z,51.00
2023-10-11T22:07:50.540Z,51.78
2023-10-11T22:10:17.990Z,52.83
2023-10-11T22:12:45.464Z,54.00
2023-10-11T22:15:13.180Z,54.43
2023-10-11T22:17:45.062Z,55.53
2023-10-11T22:20:18.413Z,55.96
2023-10-11T22:22:45.410Z,56.89
2023-10-11T22:25:12.394Z,57.91
2023-10-11T22:27:39.611Z,59.47
2023-10-11T22:30:11.737Z,60.65
2023-10-11T22:32:38.879Z,61.12
2023-10-11T22:35:08.914Z,62.66
2023-10-11T22:37:36.338Z,64.31
2023-10-11T22:40:04.112Z,64.80
2023-10-11T22:42:32.612Z,66.07
2023-10-11T22:44:59.833Z,67.18
2023-10-11T22:47:26.783Z,68.14
2023-10-11T22:49:53.721Z,69.43
2023-10-11T22:52:21.476Z,70.59
2023-10-11T22:54:48.515Z,70.02
2023-10-11T22:57:15.495Z,70.44
2023-10-11T22:59:42.443Z,71.35
2023-10-11T23:02:11.634Z,71.47
2023-10-11T23:04:38.591Z,71.64
2023-10-11T23:07:05.453Z,72.59
2023-10-11T23:09:34.437Z,72.79
2023-10-11T23:12:01.688Z,72.91
2023-10-11T23:14:32.845Z,73.41
2023-10-11T23:16:59.828Z,73.51
2023-10-11T23:19:31.862Z,73.69
2023-10-11T23:22:02.295Z,73.03
2023-10-11T23:24:42.040Z,72.67
2023-10-11T23:27:12.554Z,72.46
2023-10-11T23:29:46.754Z,71.89
2023-10-11T23:32:15.779Z,72.22
2023-10-11T23:34:42.673Z,70.82
2023-10-11T23:37:15.973Z,69.17
2023-10-11T23:40:03.094Z,66.43
2023-10-11T23:42:34.935Z,68.66
2023-10-11T23:45:02.117Z,66.58
2023-10-11T23:47:30.101Z,65.62
2023-10-11T23:49:57.424Z,64.01
2023-10-11T23:52:28.576Z,63.13
2023-10-11T23:54:56.000Z,63.73
2023-10-11T23:57:24.159Z,63.42
2023-10-11T23:59:51.184Z,62.37
